Flight Track Log - Related Links

Times and Time Zones

All times are in EDT time to prevent confusion due to time zone crossing. See the SWA1092 flight status page for this flight to view local times or setup timezone preferences in your user account.

Time Position Orientation Groundspeed Altitude Reporting Facility
EDT Latitude Longitude Course Direction KTS MPH feet Rate Location/Type
Mon 07:11:17 AM 31.9336 -102.0494 82° East 264 304 8,200  Level Fort Worth Center
Mon 07:12:17 AM 31.9472 -101.9597 80° East 282 325 10,600 2,950 Climbing Fort Worth Center
Mon 07:13:17 AM 31.9636 -101.8528 80° East 307 353 14,100 2,900 Climbing Fort Worth Center
Mon 07:14:17 AM 31.9800 -101.7433 80° East 324 373 16,400 2,500 Climbing Fort Worth Center
Mon 07:15:00 AM 32.0592 -101.6283 79° East  Level FlightAware Approximate
Mon 07:15:17 AM 31.9986 -101.6242 80° East 348 400 19,100  Level Fort Worth Center
Mon 07:16:00 AM 32.0708 -101.5135 82° East  Level FlightAware Approximate
Mon 07:16:17 AM 32.0131 -101.5047 82° East 361 415 21,800  Level Fort Worth Center
Mon 07:17:17 AM 32.0294 -101.3831 81° East 368 423 23,700 1,950 Climbing Fort Worth Center
Mon 07:18:17 AM 32.0481 -101.2514 80° East 382 440 25,700 1,950 Climbing Fort Worth Center
Mon 07:19:17 AM 32.0644 -101.1222 81° East 394 453 27,600 1,550 Climbing Fort Worth Center
Mon 07:20:17 AM 32.0850 -100.9908 80° East 399 459 28,800 1,450 Climbing Fort Worth Center
Mon 07:21:17 AM 32.0972 -100.8539 84° East 411 473 30,500 1,750 Climbing Fort Worth Center
Mon 07:22:17 AM 32.1175 -100.7172 80° East 417 480 32,300 1,250 Climbing Fort Worth Center
Mon 07:23:17 AM 32.1358 -100.5806 81° East 417 480 33,000 350 Climbing Fort Worth Center
Mon 07:24:17 AM 32.1517 -100.4439 82° East 422 486 33,000  Level Fort Worth Center
Mon 07:25:17 AM 32.1694 -100.3094 81° East 422 486 33,000  Level Fort Worth Center
Mon 07:26:17 AM 32.1869 -100.1750 81° East 422 486 33,000  Level Fort Worth Center
Mon 07:27:17 AM 32.2047 -100.0381 81° East 422 486 33,000  Level Fort Worth Center
Mon 07:28:17 AM 32.2217 -99.9133 81° East 427 491 33,000  Level Fort Worth Center
Mon 07:29:17 AM 32.2308 -99.7758 85° East 422 486 33,000  Level Fort Worth Center
Mon 07:30:17 AM 32.2269 -99.6383 92° East 422 486 33,000  Level Fort Worth Center
Mon 07:31:17 AM 32.2231 -99.4983 92° East 422 486 33,000  Level Fort Worth Center
Mon 07:32:17 AM 32.2192 -99.3606 92° East 422 486 33,000  Level Fort Worth Center
Mon 07:33:17 AM 32.2147 -99.2231 92° East 422 486 33,000  Level Fort Worth Center
Mon 07:34:17 AM 32.2106 -99.0856 92° East 422 486 33,000 -550 Level Fort Worth Center
Mon 07:35:17 AM 32.2039 -98.9478 93° East 422 486 31,900 -1,050 Descending Fort Worth Center
Mon 07:36:17 AM 32.1992 -98.8103 92° East 422 486 30,900 -950 Descending Fort Worth Center
Mon 07:37:17 AM 32.1922 -98.6728 93° East 422 486 30,000 -950 Descending Fort Worth Center
Mon 07:38:17 AM 32.1875 -98.5328 92° East 422 486 29,000 -950 Descending Fort Worth Center
Mon 07:39:17 AM 32.1822 -98.4000 93° East 415 478 28,100 -1,000 Descending Fort Worth Center
Mon 07:40:17 AM 32.1769 -98.2628 93° East 415 478 27,000 -1,800 Descending Fort Worth Center
Mon 07:41:17 AM 32.1694 -98.1250 94° East 415 478 24,500 -2,950 Descending Fort Worth Center
Mon 07:42:17 AM 32.1933 -97.9878 78° East 396 456 21,100 -2,800 Descending Fort Worth Center
Mon 07:43:17 AM 32.2500 -97.8950 54° Northeast 379 436 18,900 -2,300 Descending Fort Worth Center
Mon 07:44:17 AM 32.3131 -97.7822 56° Northeast 374 430 16,500 -2,250 Descending Fort Worth Center
Mon 07:45:17 AM 32.3653 -97.6939 55° Northeast 369 425 14,400 -2,286 Descending Fort Worth Center
Mon 07:46:02 AM 32.4167 -97.6167 52° Northeast 347 399 12,500 -1,943 Descending Dallas / Fort Worth TRACON
Mon 07:47:02 AM 32.4667 -97.5167 59° Northeast 326 375 11,000 -750 Descending Dallas / Fort Worth TRACON
Mon 07:48:02 AM 32.5167 -97.4500 48° Northeast 295 339 11,000  Level Dallas / Fort Worth TRACON
Mon 07:49:02 AM 32.5833 -97.3833 40° Northeast 299 344 11,000  Level Dallas / Fort Worth TRACON
Mon 07:50:02 AM 32.6333 -97.3167 48° Northeast 296 341 11,000  Level Dallas / Fort Worth TRACON
Mon 07:51:02 AM 32.6833 -97.2333 55° Northeast 292 336 11,000  Level Dallas / Fort Worth TRACON
Mon 07:52:02 AM 32.7333 -97.1833 40° Northeast 249 287 11,000 -368 Level Dallas / Fort Worth TRACON
Mon 07:52:56 AM 32.8000 -97.1667 12° North 245 282 10,300 -1,263 Descending Dallas / Fort Worth TRACON
Mon 07:53:56 AM 32.8667 -97.1833 348° North 243 280 8,600 -1,750 Descending Dallas / Fort Worth TRACON
Mon 07:54:56 AM 32.9167 -97.1167 48° Northeast 232 267 6,800 -2,000 Descending Dallas / Fort Worth TRACON
Mon 07:56:08 AM 32.9333 -97.0333 77° East 215 247 4,200 -1,455 Descending Dallas / Fort Worth TRACON
Mon 07:57:08 AM 32.9167 -96.9833 112° Southeast 152 175 3,600 -1,087 Descending Dallas / Fort Worth TRACON
Mon 07:58:15 AM 32.9167 -96.9333 90° East 134 154 1,900 -1,100 Descending Dallas / Fort Worth TRACON
Mon 07:59:08 AM 32.8833 -96.9000 140° Southeast 120 138 1,400 -566 Descending Dallas / Fort Worth TRACON
Mon 08:01:00 AM 32.8471 -96.8518 108° East  Level Estimated
Mon 08:08:00 AM 32.8471 -96.8518 108° East  Level Estimated

Login

Don't have an account? Register now (free) for customized features, flight alerts, and more!